Time;durP1;ratioP1;P1;durP2;ratioP2;P2;SDS_P1;SDS_P2;PMS_P1;PMS_P2;Temp;Humidity;BMP_temperature;BMP_pressure;BME280_temperature;BME280_humidity;BME280_pressure;Samples;Min_cycle;Max_cycle;Signal;HPM_P1;HPM_P2
2023/07/01 00:01:05;;;;;;;7.53;2.35;;;;;;;;;;4973574;28;20228;-61
2023/07/01 00:03:31;;;;;;;9.27;2.80;;;;;;;;;;4973326;28;20217;-61
2023/07/01 00:05:57;;;;;;;9.82;2.92;;;;;;;;;;4973935;28;20217;-61
2023/07/01 00:08:22;;;;;;;9.82;2.58;;;;;;;;;;4973593;28;20288;-61
2023/07/01 00:10:48;;;;;;;9.23;2.40;;;;;;;;;;4973071;28;20313;-62
2023/07/01 00:13:13;;;;;;;10.93;2.47;;;;;;;;;;4962276;28;20573;-61
2023/07/01 00:15:38;;;;;;;12.05;2.55;;;;;;;;;;4964388;28;20243;-61
2023/07/01 00:18:04;;;;;;;6.65;2.40;;;;;;;;;;4971598;28;20198;-61
2023/07/01 00:20:31;;;;;;;8.80;2.38;;;;;;;;;;4973877;28;20245;-61
2023/07/01 00:22:56;;;;;;;7.45;2.38;;;;;;;;;;4973942;28;20218;-61
2023/07/01 00:25:23;;;;;;;4.78;2.33;;;;;;;;;;4972488;28;20293;-62
2023/07/01 00:27:48;;;;;;;6.93;2.13;;;;;;;;;;4973641;28;20228;-61
2023/07/01 00:30:13;;;;;;;7.68;2.25;;;;;;;;;;4971832;28;20324;-62
2023/07/01 00:32:39;;;;;;;7.75;2.42;;;;;;;;;;4973671;28;20218;-61
2023/07/01 00:35:04;;;;;;;6.30;2.22;;;;;;;;;;4973230;28;20209;-61
2023/07/01 00:37:30;;;;;;;5.55;1.98;;;;;;;;;;4973086;28;20268;-61
2023/07/01 00:39:55;;;;;;;10.70;2.45;;;;;;;;;;4973455;28;20593;-61
2023/07/01 00:42:21;;;;;;;6.18;2.17;;;;;;;;;;4973177;28;20214;-61
2023/07/01 00:44:46;;;;;;;6.30;2.10;;;;;;;;;;4972626;28;20279;-61
2023/07/01 00:47:12;;;;;;;6.75;2.35;;;;;;;;;;4973123;28;20214;-62
2023/07/01 00:49:37;;;;;;;5.13;2.45;;;;;;;;;;4972031;28;20221;-61
2023/07/01 00:52:03;;;;;;;7.40;2.50;;;;;;;;;;4972296;28;20595;-61
2023/07/01 00:54:28;;;;;;;6.05;2.08;;;;;;;;;;4973092;28;20669;-61
2023/07/01 00:56:55;;;;;;;6.60;2.22;;;;;;;;;;4972051;28;20217;-62
2023/07/01 00:59:20;;;;;;;5.13;2.17;;;;;;;;;;4970568;28;20229;-61
2023/07/01 01:01:46;;;;;;;5.60;2.30;;;;;;;;;;4972950;28;20198;-61
2023/07/01 01:04:38;;;;;;;7.38;2.28;;;;;;;;;;4971227;28;20214;-61
2023/07/01 01:07:05;;;;;;;6.93;2.15;;;;;;;;;;4929955;28;20222;-61
2023/07/01 01:09:45;;;;;;;5.97;2.00;;;;;;;;;;4962783;28;20591;-62
2023/07/01 01:12:10;;;;;;;7.18;1.90;;;;;;;;;;4953246;28;20226;-61
2023/07/01 01:14:37;;;;;;;7.35;2.28;;;;;;;;;;4953060;28;20681;-61
2023/07/01 01:17:04;;;;;;;4.10;2.10;;;;;;;;;;4971415;28;20225;-61
2023/07/01 01:19:32;;;;;;;6.45;2.15;;;;;;;;;;4970677;28;20214;-62
2023/07/01 01:22:16;;;;;;;6.90;2.28;;;;;;;;;;4973124;28;20292;-61
2023/07/01 01:24:42;;;;;;;5.47;2.25;;;;;;;;;;4972278;28;20334;-62
2023/07/01 01:27:11;;;;;;;7.43;2.72;;;;;;;;;;4971495;28;20238;-61
2023/07/01 01:29:37;;;;;;;10.77;2.22;;;;;;;;;;4972990;28;20264;-61
2023/07/01 01:32:02;;;;;;;7.13;2.30;;;;;;;;;;4972426;28;20222;-61
2023/07/01 01:34:27;;;;;;;9.02;2.30;;;;;;;;;;4971922;28;20217;-61
2023/07/01 01:36:53;;;;;;;9.30;2.72;;;;;;;;;;4972739;28;20221;-61
2023/07/01 01:39:20;;;;;;;7.88;2.15;;;;;;;;;;4971231;28;20217;-61
2023/07/01 01:42:09;;;;;;;4.90;2.05;;;;;;;;;;4970815;28;20234;-61
2023/07/01 01:44:44;;;;;;;6.30;2.13;;;;;;;;;;4964524;28;20753;-61
2023/07/01 01:47:10;;;;;;;6.13;2.10;;;;;;;;;;4972269;28;20260;-61
2023/07/01 01:49:35;;;;;;;5.72;2.10;;;;;;;;;;4970696;28;20624;-61
2023/07/01 01:52:00;;;;;;;7.30;2.40;;;;;;;;;;4972170;28;20233;-60
2023/07/01 01:54:26;;;;;;;6.10;2.05;;;;;;;;;;4971498;28;20270;-61
2023/07/01 01:56:51;;;;;;;7.28;2.30;;;;;;;;;;4970582;28;20532;-61
2023/07/01 01:59:16;;;;;;;8.48;2.20;;;;;;;;;;4972061;28;20214;-61
2023/07/01 02:01:42;;;;;;;6.40;2.33;;;;;;;;;;4971836;28;20225;-61
2023/07/01 02:04:07;;;;;;;8.70;2.28;;;;;;;;;;4963160;28;20217;-61
2023/07/01 02:06:34;;;;;;;9.43;2.20;;;;;;;;;;4944008;28;20752;-62
2023/07/01 02:08:59;;;;;;;7.55;1.90;;;;;;;;;;4943509;28;20238;-61
2023/07/01 02:11:24;;;;;;;7.15;2.17;;;;;;;;;;4943265;28;20589;-61
2023/07/01 02:13:50;;;;;;;6.40;2.42;;;;;;;;;;4943533;28;20586;-62
2023/07/01 02:16:15;;;;;;;10.23;2.75;;;;;;;;;;4942616;28;20686;-61
2023/07/01 02:18:41;;;;;;;7.60;2.78;;;;;;;;;;4943288;28;20226;-62
2023/07/01 02:21:06;;;;;;;7.93;2.00;;;;;;;;;;4938288;28;20305;-61
2023/07/01 02:23:32;;;;;;;7.60;2.28;;;;;;;;;;4934892;28;20214;-61
2023/07/01 02:25:57;;;;;;;8.82;2.42;;;;;;;;;;4935398;28;20753;-62
2023/07/01 02:28:22;;;;;;;7.03;2.20;;;;;;;;;;4940005;28;20242;-61
2023/07/01 02:30:48;;;;;;;10.45;2.40;;;;;;;;;;4942822;28;20670;-62
2023/07/01 02:33:13;;;;;;;7.05;2.35;;;;;;;;;;4942954;28;20249;-61
2023/07/01 02:35:38;;;;;;;8.32;2.20;;;;;;;;;;4943612;28;20619;-62
2023/07/01 02:38:04;;;;;;;6.03;2.05;;;;;;;;;;4945567;28;20273;-62
2023/07/01 02:40:29;;;;;;;6.03;2.30;;;;;;;;;;4946620;28;20218;-62
2023/07/01 02:42:54;;;;;;;10.30;2.60;;;;;;;;;;4944045;28;20778;-62
2023/07/01 02:45:19;;;;;;;7.97;2.45;;;;;;;;;;4937740;28;20222;-62
2023/07/01 02:47:45;;;;;;;6.55;2.20;;;;;;;;;;4938869;28;20640;-62
2023/07/01 02:50:10;;;;;;;6.60;2.38;;;;;;;;;;4940211;28;20317;-62
2023/07/01 02:52:35;;;;;;;6.07;2.00;;;;;;;;;;4945787;28;20229;-61
2023/07/01 02:55:01;;;;;;;7.50;2.33;;;;;;;;;;4946137;28;20249;-61
2023/07/01 02:57:26;;;;;;;5.43;2.05;;;;;;;;;;4956667;28;20207;-62
2023/07/01 02:59:51;;;;;;;6.72;2.10;;;;;;;;;;4945495;28;20257;-62
2023/07/01 03:02:17;;;;;;;7.93;2.20;;;;;;;;;;4946047;28;20278;-61
2023/07/01 03:04:42;;;;;;;8.75;2.40;;;;;;;;;;4947330;28;20211;-62
2023/07/01 03:07:07;;;;;;;8.18;2.13;;;;;;;;;;4961784;28;20214;-61
2023/07/01 03:09:33;;;;;;;8.88;2.03;;;;;;;;;;4968568;28;20269;-62
2023/07/01 03:11:58;;;;;;;9.40;3.53;;;;;;;;;;4954406;28;20701;-61
2023/07/01 03:14:23;;;;;;;7.53;2.30;;;;;;;;;;4955016;28;20700;-62
2023/07/01 03:16:49;;;;;;;6.13;2.10;;;;;;;;;;4974717;28;20689;-61
2023/07/01 03:19:15;;;;;;;9.32;2.22;;;;;;;;;;4973655;28;20224;-61
2023/07/01 03:21:40;;;;;;;7.00;2.22;;;;;;;;;;4975051;28;20221;-61
2023/07/01 03:24:05;;;;;;;6.72;2.10;;;;;;;;;;4974382;28;20276;-61
2023/07/01 03:26:31;;;;;;;5.57;1.90;;;;;;;;;;4974106;28;20622;-61
2023/07/01 03:28:56;;;;;;;4.60;1.95;;;;;;;;;;4974736;28;20575;-61
2023/07/01 03:31:21;;;;;;;3.75;1.75;;;;;;;;;;4954745;28;20226;-62
2023/07/01 03:33:47;;;;;;;4.75;1.90;;;;;;;;;;4937346;28;20573;-62
2023/07/01 03:36:12;;;;;;;3.97;1.80;;;;;;;;;;4937403;28;20225;-62
2023/07/01 03:38:37;;;;;;;4.18;1.70;;;;;;;;;;4940313;28;20309;-62
2023/07/01 03:41:03;;;;;;;5.82;1.60;;;;;;;;;;4944857;28;20313;-61
2023/07/01 03:43:28;;;;;;;5.43;2.05;;;;;;;;;;4945421;28;20280;-61
2023/07/01 03:45:56;;;;;;;5.83;2.00;;;;;;;;;;4945065;28;20769;-62
2023/07/01 03:48:21;;;;;;;4.90;2.17;;;;;;;;;;4962355;28;20213;-61
2023/07/01 03:50:47;;;;;;;8.13;2.08;;;;;;;;;;4962966;28;20715;-61
2023/07/01 03:53:12;;;;;;;5.25;2.30;;;;;;;;;;4963474;28;20218;-63
2023/07/01 03:55:37;;;;;;;4.15;2.00;;;;;;;;;;4955800;28;20222;-61
2023/07/01 03:58:04;;;;;;;4.68;1.92;;;;;;;;;;4953513;28;20218;-60
2023/07/01 04:00:29;;;;;;;5.82;2.38;;;;;;;;;;4956567;28;20325;-61
2023/07/01 04:02:54;;;;;;;5.03;2.28;;;;;;;;;;4963204;28;20313;-62
2023/07/01 04:05:20;;;;;;;6.15;2.10;;;;;;;;;;4961237;28;20633;-61
2023/07/01 04:07:46;;;;;;;8.30;2.58;;;;;;;;;;4945152;28;20700;-61
2023/07/01 04:10:11;;;;;;;6.35;2.10;;;;;;;;;;4944831;28;20531;-64
2023/07/01 04:12:37;;;;;;;6.80;1.98;;;;;;;;;;4945182;28;20689;-61
2023/07/01 04:15:03;;;;;;;6.43;2.38;;;;;;;;;;4944662;28;20266;-60
2023/07/01 04:17:28;;;;;;;4.97;2.05;;;;;;;;;;4938683;28;20534;-62
2023/07/01 04:19:54;;;;;;;5.57;2.35;;;;;;;;;;4937041;28;20252;-61
2023/07/01 04:22:19;;;;;;;5.30;2.25;;;;;;;;;;4935365;28;20634;-61
2023/07/01 04:24:44;;;;;;;6.78;2.20;;;;;;;;;;4942694;28;20309;-63
2023/07/01 04:27:10;;;;;;;4.97;1.92;;;;;;;;;;4944097;28;20242;-63
2023/07/01 04:29:35;;;;;;;6.20;2.40;;;;;;;;;;4944110;28;20215;-63
2023/07/01 04:32:00;;;;;;;4.70;1.80;;;;;;;;;;4943271;28;20230;-62
2023/07/01 04:34:26;;;;;;;5.78;1.80;;;;;;;;;;4947001;28;20261;-63
2023/07/01 04:36:51;;;;;;;3.22;1.70;;;;;;;;;;4961074;28;20559;-63
2023/07/01 04:39:17;;;;;;;9.93;2.05;;;;;;;;;;4970881;28;20754;-62
2023/07/01 04:41:43;;;;;;;5.60;1.90;;;;;;;;;;4972708;28;20216;-63
2023/07/01 04:44:08;;;;;;;6.68;1.85;;;;;;;;;;4972336;28;20221;-63
2023/07/01 04:46:33;;;;;;;3.10;1.60;;;;;;;;;;4973413;28;20216;-63
2023/07/01 04:48:59;;;;;;;6.35;1.83;;;;;;;;;;4973464;28;20213;-63
2023/07/01 04:51:25;;;;;;;5.13;1.88;;;;;;;;;;4972070;28;20669;-63
2023/07/01 04:53:50;;;;;;;6.13;1.83;;;;;;;;;;4973517;28;20217;-63
2023/07/01 04:56:15;;;;;;;3.60;1.90;;;;;;;;;;4972736;28;20610;-62
2023/07/01 04:58:41;;;;;;;4.60;2.00;;;;;;;;;;4972006;28;20697;-63
2023/07/01 05:01:07;;;;;;;4.30;2.17;;;;;;;;;;4972644;28;20221;-62
2023/07/01 05:03:32;;;;;;;3.63;2.00;;;;;;;;;;4973325;28;20214;-62
2023/07/01 05:05:58;;;;;;;3.85;1.90;;;;;;;;;;4972510;28;20214;-63
2023/07/01 05:08:23;;;;;;;5.78;2.15;;;;;;;;;;4972489;28;20229;-64
2023/07/01 05:10:48;;;;;;;4.40;2.05;;;;;;;;;;4958522;28;20230;-63
2023/07/01 05:13:14;;;;;;;3.55;1.90;;;;;;;;;;4952687;28;20230;-63
2023/07/01 05:15:39;;;;;;;3.80;2.00;;;;;;;;;;4963506;28;20300;-64
2023/07/01 05:18:04;;;;;;;6.18;2.08;;;;;;;;;;4972558;28;20201;-63
2023/07/01 05:20:30;;;;;;;3.70;2.17;;;;;;;;;;4971990;28;20237;-64
2023/07/01 05:22:55;;;;;;;3.90;1.95;;;;;;;;;;4972965;28;20214;-64
2023/07/01 05:25:20;;;;;;;3.95;2.35;;;;;;;;;;4972528;28;20217;-64
2023/07/01 05:27:46;;;;;;;4.45;1.95;;;;;;;;;;4972130;28;20225;-64
2023/07/01 05:30:11;;;;;;;3.58;2.22;;;;;;;;;;4972560;28;20225;-64
2023/07/01 05:32:37;;;;;;;3.47;1.83;;;;;;;;;;4972079;28;20217;-64
2023/07/01 05:35:02;;;;;;;2.95;2.08;;;;;;;;;;4970894;28;20677;-63
2023/07/01 05:37:28;;;;;;;4.10;2.08;;;;;;;;;;4966863;28;20288;-64
2023/07/01 05:39:53;;;;;;;4.10;2.28;;;;;;;;;;4965742;28;20524;-64
2023/07/01 05:42:18;;;;;;;5.97;2.22;;;;;;;;;;4958174;28;20677;-64
2023/07/01 05:44:44;;;;;;;3.15;2.08;;;;;;;;;;4956421;28;20307;-63
2023/07/01 05:47:09;;;;;;;2.92;1.90;;;;;;;;;;4952196;28;20641;-63
2023/07/01 05:49:34;;;;;;;4.03;2.17;;;;;;;;;;4953419;28;20687;-63
2023/07/01 05:52:00;;;;;;;3.45;2.15;;;;;;;;;;4953455;28;20694;-63
2023/07/01 05:54:25;;;;;;;5.88;2.22;;;;;;;;;;4952217;28;21022;-64
2023/07/01 05:56:50;;;;;;;6.97;2.00;;;;;;;;;;4953496;28;20249;-63
2023/07/01 05:59:16;;;;;;;4.85;2.20;;;;;;;;;;4953067;28;20206;-64
2023/07/01 06:01:41;;;;;;;4.78;2.38;;;;;;;;;;4952796;28;20236;-64
2023/07/01 06:04:06;;;;;;;5.57;2.63;;;;;;;;;;4952908;28;20229;-63
2023/07/01 06:06:32;;;;;;;4.10;1.92;;;;;;;;;;4953393;28;20218;-64
2023/07/01 06:08:57;;;;;;;3.70;2.47;;;;;;;;;;4959447;28;20685;-64
2023/07/01 06:11:22;;;;;;;3.13;2.00;;;;;;;;;;4975331;28;20248;-63
2023/07/01 06:13:47;;;;;;;3.65;2.10;;;;;;;;;;4976222;28;20552;-63
2023/07/01 06:16:13;;;;;;;4.30;1.90;;;;;;;;;;4974990;28;20714;-64
2023/07/01 06:18:38;;;;;;;3.78;2.20;;;;;;;;;;4975961;28;20214;-63
2023/07/01 06:21:06;;;;;;;3.20;1.92;;;;;;;;;;4975843;28;20216;-63
2023/07/01 06:23:32;;;;;;;5.03;2.63;;;;;;;;;;4975206;28;20225;-63
2023/07/01 06:25:57;;;;;;;3.65;2.17;;;;;;;;;;4976002;28;20279;-63
2023/07/01 06:28:23;;;;;;;3.67;2.20;;;;;;;;;;4975466;28;20225;-64
2023/07/01 06:30:48;;;;;;;3.30;2.10;;;;;;;;;;4975208;28;20233;-64
2023/07/01 06:33:14;;;;;;;3.05;2.22;;;;;;;;;;4975341;28;20210;-63
2023/07/01 06:35:42;;;;;;;3.65;2.33;;;;;;;;;;4975888;28;20248;-63
2023/07/01 06:38:08;;;;;;;3.15;2.10;;;;;;;;;;4974491;28;20767;-64
2023/07/01 06:40:33;;;;;;;3.92;2.22;;;;;;;;;;4975791;28;20217;-63
2023/07/01 06:42:58;;;;;;;2.92;2.25;;;;;;;;;;4974831;28;20328;-63
2023/07/01 06:45:24;;;;;;;3.38;2.28;;;;;;;;;;4975159;28;20719;-64
2023/07/01 06:47:49;;;;;;;4.63;2.53;;;;;;;;;;4975784;28;20689;-63
2023/07/01 06:50:15;;;;;;;4.32;2.30;;;;;;;;;;4974140;28;20536;-64
2023/07/01 06:52:40;;;;;;;5.03;2.42;;;;;;;;;;4975656;28;20265;-63
2023/07/01 06:55:07;;;;;;;3.75;1.98;;;;;;;;;;4974914;28;20214;-63
2023/07/01 06:57:32;;;;;;;3.53;2.30;;;;;;;;;;4974616;28;20673;-63
2023/07/01 06:59:58;;;;;;;3.33;2.13;;;;;;;;;;4975479;28;20222;-63
2023/07/01 07:02:23;;;;;;;2.92;2.25;;;;;;;;;;4975081;28;20241;-64
2023/07/01 07:04:49;;;;;;;3.05;2.30;;;;;;;;;;4974439;28;20352;-63
2023/07/01 07:07:14;;;;;;;3.53;2.53;;;;;;;;;;4974931;28;20218;-63
2023/07/01 07:09:39;;;;;;;3.75;2.10;;;;;;;;;;4974872;28;20242;-63
2023/07/01 07:12:05;;;;;;;5.30;2.30;;;;;;;;;;4974242;28;20246;-63
2023/07/01 07:14:30;;;;;;;4.55;2.28;;;;;;;;;;4975078;28;20240;-63
2023/07/01 07:16:55;;;;;;;3.75;2.35;;;;;;;;;;4973877;28;20587;-63
2023/07/01 07:19:21;;;;;;;4.07;2.08;;;;;;;;;;4973683;28;20225;-63
2023/07/01 07:21:46;;;;;;;3.58;1.90;;;;;;;;;;4974465;28;20321;-63
2023/07/01 07:24:12;;;;;;;4.43;2.40;;;;;;;;;;4974496;28;20228;-63
2023/07/01 07:26:37;;;;;;;2.75;2.05;;;;;;;;;;4974063;28;20234;-63
2023/07/01 07:29:03;;;;;;;3.58;2.10;;;;;;;;;;4974326;28;20588;-62
2023/07/01 07:31:28;;;;;;;3.58;2.30;;;;;;;;;;4974867;28;20226;-64
2023/07/01 07:33:54;;;;;;;3.25;2.10;;;;;;;;;;4974059;28;20224;-64
2023/07/01 07:36:19;;;;;;;3.42;2.30;;;;;;;;;;4974267;28;21773;-64
2023/07/01 07:38:45;;;;;;;4.75;2.33;;;;;;;;;;4974717;28;20210;-64
2023/07/01 07:41:10;;;;;;;4.07;2.25;;;;;;;;;;4973384;28;20229;-64
2023/07/01 07:43:35;;;;;;;5.47;2.20;;;;;;;;;;4974682;28;20269;-64
2023/07/01 07:46:00;;;;;;;3.70;2.30;;;;;;;;;;4974157;28;20210;-63
2023/07/01 07:48:26;;;;;;;3.15;2.22;;;;;;;;;;4973813;28;20214;-64
2023/07/01 07:50:51;;;;;;;3.65;2.10;;;;;;;;;;4974294;28;20268;-64
2023/07/01 07:53:16;;;;;;;3.22;2.33;;;;;;;;;;4973498;28;20268;-64
2023/07/01 07:55:42;;;;;;;6.28;2.15;;;;;;;;;;4974203;28;20270;-64
2023/07/01 07:58:08;;;;;;;3.33;2.00;;;;;;;;;;4974137;28;20309;-63
2023/07/01 08:00:33;;;;;;;3.42;2.00;;;;;;;;;;4973340;28;20222;-64
2023/07/01 08:02:58;;;;;;;3.30;1.98;;;;;;;;;;4974416;28;20237;-64
2023/07/01 08:05:26;;;;;;;2.53;1.98;;;;;;;;;;4973931;28;20225;-64
2023/07/01 08:07:51;;;;;;;3.42;2.13;;;;;;;;;;4973386;28;20221;-64
2023/07/01 08:10:17;;;;;;;3.17;2.13;;;;;;;;;;4973497;28;20209;-64
2023/07/01 08:12:42;;;;;;;3.92;2.00;;;;;;;;;;4974162;28;20299;-64
2023/07/01 08:15:08;;;;;;;2.63;2.10;;;;;;;;;;4972626;28;20214;-63
2023/07/01 08:17:34;;;;;;;3.55;2.13;;;;;;;;;;4974238;28;20221;-63
2023/07/01 08:19:59;;;;;;;3.15;2.00;;;;;;;;;;4973710;28;20568;-63
2023/07/01 08:22:24;;;;;;;5.15;1.95;;;;;;;;;;4972579;28;20293;-64
2023/07/01 08:24:50;;;;;;;4.28;2.50;;;;;;;;;;4973870;28;20648;-64
2023/07/01 08:27:15;;;;;;;3.08;2.33;;;;;;;;;;4973175;28;20715;-63
2023/07/01 08:29:40;;;;;;;3.72;2.50;;;;;;;;;;4973159;28;20762;-63
2023/07/01 08:32:06;;;;;;;3.00;2.40;;;;;;;;;;4973390;28;20704;-63
2023/07/01 08:34:32;;;;;;;3.38;2.38;;;;;;;;;;4972694;28;20564;-63
2023/07/01 08:36:57;;;;;;;3.20;2.35;;;;;;;;;;4972790;28;20627;-64
2023/07/01 08:39:24;;;;;;;2.85;2.10;;;;;;;;;;4973055;28;20222;-64
2023/07/01 08:41:56;;;;;;;3.58;2.17;;;;;;;;;;4973474;28;20218;-64
2023/07/01 08:44:22;;;;;;;2.83;2.30;;;;;;;;;;4972546;28;20210;-64
2023/07/01 08:46:48;;;;;;;4.50;2.53;;;;;;;;;;4972008;28;20573;-63
2023/07/01 08:49:13;;;;;;;4.55;2.22;;;;;;;;;;4971417;28;20221;-63
2023/07/01 08:51:40;;;;;;;3.33;2.30;;;;;;;;;;4972543;28;20287;-64
2023/07/01 08:54:06;;;;;;;3.08;2.45;;;;;;;;;;4973210;28;20276;-64
2023/07/01 08:56:31;;;;;;;3.70;2.15;;;;;;;;;;4971494;28;20670;-64
2023/07/01 08:58:56;;;;;;;4.03;2.13;;;;;;;;;;4972855;28;20221;-65
2023/07/01 09:01:22;;;;;;;3.95;2.60;;;;;;;;;;4971818;28;20210;-65
2023/07/01 09:03:47;;;;;;;4.72;2.70;;;;;;;;;;4972565;28;20301;-66
2023/07/01 09:06:13;;;;;;;2.75;2.40;;;;;;;;;;4972494;28;20668;-65
2023/07/01 09:08:38;;;;;;;2.58;2.17;;;;;;;;;;4973205;28;20209;-65
2023/07/01 09:11:10;;;;;;;2.78;2.13;;;;;;;;;;4971953;28;20768;-65
2023/07/01 09:13:35;;;;;;;4.38;2.72;;;;;;;;;;4973157;28;20272;-65
2023/07/01 09:16:01;;;;;;;2.97;2.25;;;;;;;;;;4955224;28;20214;-64
2023/07/01 09:18:28;;;;;;;3.35;2.53;;;;;;;;;;4972136;28;20305;-65
2023/07/01 09:20:53;;;;;;;2.80;2.38;;;;;;;;;;4972920;28;20214;-65
2023/07/01 09:23:29;;;;;;;2.70;2.38;;;;;;;;;;4972462;28;20676;-65
2023/07/01 09:26:06;;;;;;;3.38;2.50;;;;;;;;;;4972151;28;20221;-65
2023/07/01 09:28:32;;;;;;;3.80;2.42;;;;;;;;;;4972405;28;20685;-66
2023/07/01 09:31:04;;;;;;;2.47;2.22;;;;;;;;;;4972887;28;20241;-66
2023/07/01 09:33:30;;;;;;;3.03;2.15;;;;;;;;;;4971817;28;20308;-66
2023/07/01 09:36:01;;;;;;;3.28;2.63;;;;;;;;;;4972897;28;20337;-66
2023/07/01 09:38:33;;;;;;;2.80;2.30;;;;;;;;;;4972382;28;20221;-65
2023/07/01 09:41:16;;;;;;;4.05;2.40;;;;;;;;;;4972421;28;20210;-65
2023/07/01 09:43:41;;;;;;;3.15;2.42;;;;;;;;;;4972242;28;20240;-65
2023/07/01 09:46:08;;;;;;;2.78;2.30;;;;;;;;;;4974568;28;20685;-64
2023/07/01 09:48:33;;;;;;;3.17;2.80;;;;;;;;;;4976947;28;20236;-65
2023/07/01 09:51:02;;;;;;;3.10;2.78;;;;;;;;;;4976659;28;20696;-65
2023/07/01 09:53:29;;;;;;;3.47;2.40;;;;;;;;;;4975526;28;20280;-64
2023/07/01 09:55:54;;;;;;;2.90;2.70;;;;;;;;;;4976718;28;20217;-65
2023/07/01 09:58:20;;;;;;;3.20;2.80;;;;;;;;;;4975876;28;21217;-64
2023/07/01 10:00:45;;;;;;;3.55;2.83;;;;;;;;;;4974565;28;20242;-64
2023/07/01 10:03:11;;;;;;;3.30;2.65;;;;;;;;;;4975996;28;20275;-65
2023/07/01 10:05:36;;;;;;;3.53;2.92;;;;;;;;;;4976471;28;20586;-65
2023/07/01 10:08:02;;;;;;;3.15;2.72;;;;;;;;;;4975201;28;20797;-65
2023/07/01 10:10:27;;;;;;;3.42;2.92;;;;;;;;;;4976005;28;20229;-64
2023/07/01 10:12:52;;;;;;;3.60;3.03;;;;;;;;;;4974912;28;20226;-64
2023/07/01 10:15:26;;;;;;;4.93;2.90;;;;;;;;;;4973733;28;20205;-64
2023/07/01 10:17:52;;;;;;;4.30;3.10;;;;;;;;;;4976171;28;20591;-64
2023/07/01 10:20:27;;;;;;;4.88;2.97;;;;;;;;;;4975734;28;20217;-63
2023/07/01 10:22:55;;;;;;;3.65;2.95;;;;;;;;;;4975442;28;20292;-64
2023/07/01 10:25:36;;;;;;;3.95;3.00;;;;;;;;;;4975568;28;20244;-63
2023/07/01 10:28:02;;;;;;;3.30;2.90;;;;;;;;;;4974719;28;20264;-63
2023/07/01 10:30:42;;;;;;;3.38;2.90;;;;;;;;;;4975866;28;20677;-65
2023/07/01 10:33:23;;;;;;;4.35;3.10;;;;;;;;;;4975565;28;20221;-64
2023/07/01 10:36:01;;;;;;;4.43;3.08;;;;;;;;;;4975180;28;20218;-64
2023/07/01 10:38:26;;;;;;;3.40;2.67;;;;;;;;;;4975570;28;20214;-64
2023/07/01 10:40:51;;;;;;;5.35;3.10;;;;;;;;;;4975858;28;20229;-64
2023/07/01 10:43:20;;;;;;;5.57;3.30;;;;;;;;;;4974611;28;20206;-64
2023/07/01 10:45:45;;;;;;;4.93;3.00;;;;;;;;;;4975740;28;20289;-64
2023/07/01 10:48:11;;;;;;;3.88;3.10;;;;;;;;;;4975231;28;20296;-64
2023/07/01 10:50:56;;;;;;;4.22;3.17;;;;;;;;;;4974711;28;20226;-64
2023/07/01 10:53:21;;;;;;;3.90;2.97;;;;;;;;;;4975094;28;20218;-64
2023/07/01 10:55:47;;;;;;;4.53;3.13;;;;;;;;;;4973392;28;20214;-64
2023/07/01 10:58:13;;;;;;;4.15;3.13;;;;;;;;;;4973913;28;20217;-65
2023/07/01 11:00:38;;;;;;;5.93;3.35;;;;;;;;;;4975137;28;20222;-64
2023/07/01 11:03:07;;;;;;;5.13;3.28;;;;;;;;;;4974820;28;20236;-64
2023/07/01 11:05:32;;;;;;;5.10;3.63;;;;;;;;;;4973574;28;20241;-64
2023/07/01 11:08:08;;;;;;;4.63;3.38;;;;;;;;;;4974123;28;20218;-64
2023/07/01 11:10:34;;;;;;;5.22;3.70;;;;;;;;;;4954562;28;20304;-64
2023/07/01 11:13:01;;;;;;;4.65;3.78;;;;;;;;;;4955951;28;20722;-64
2023/07/01 11:15:26;;;;;;;5.82;3.90;;;;;;;;;;4963248;28;20210;-64
2023/07/01 11:17:53;;;;;;;5.10;3.80;;;;;;;;;;4974362;28;20259;-64
2023/07/01 11:20:18;;;;;;;7.15;3.88;;;;;;;;;;4974630;28;20260;-64
2023/07/01 11:22:43;;;;;;;4.88;3.60;;;;;;;;;;4975230;28;20255;-64
2023/07/01 11:25:09;;;;;;;5.45;3.85;;;;;;;;;;4972287;28;20284;-63
2023/07/01 11:27:40;;;;;;;5.78;4.10;;;;;;;;;;4975092;28;20270;-64
2023/07/01 11:30:05;;;;;;;6.63;4.18;;;;;;;;;;4974165;28;20221;-63
2023/07/01 11:32:31;;;;;;;5.75;3.80;;;;;;;;;;4974127;28;20225;-64
2023/07/01 11:34:56;;;;;;;6.38;4.47;;;;;;;;;;4974813;28;20216;-64
2023/07/01 11:37:23;;;;;;;5.57;4.40;;;;;;;;;;4974413;28;20317;-64
2023/07/01 11:39:48;;;;;;;6.50;4.55;;;;;;;;;;4973899;28;20230;-64
2023/07/01 11:42:13;;;;;;;6.22;4.45;;;;;;;;;;4974232;28;20228;-64
2023/07/01 11:44:39;;;;;;;6.25;4.50;;;;;;;;;;4974349;28;20248;-64
2023/07/01 11:47:10;;;;;;;5.82;4.43;;;;;;;;;;4973631;28;20214;-63
2023/07/01 11:49:35;;;;;;;7.00;4.53;;;;;;;;;;4974382;28;20301;-63
2023/07/01 11:52:01;;;;;;;6.95;4.85;;;;;;;;;;4973850;28;20316;-60
2023/07/01 11:54:37;;;;;;;5.78;4.47;;;;;;;;;;4973936;28;20293;-63
2023/07/01 11:57:18;;;;;;;5.55;4.65;;;;;;;;;;4973799;28;20403;-63
2023/07/01 11:59:44;;;;;;;5.80;4.85;;;;;;;;;;4973538;28;20221;-64
2023/07/01 12:02:10;;;;;;;6.63;4.82;;;;;;;;;;4973781;28;20308;-63
2023/07/01 12:04:36;;;;;;;6.65;4.75;;;;;;;;;;4974154;28;20232;-64
2023/07/01 12:07:19;;;;;;;8.75;5.25;;;;;;;;;;4972973;28;20214;-63
2023/07/01 12:09:45;;;;;;;6.47;5.00;;;;;;;;;;4973956;28;20609;-65
2023/07/01 12:12:11;;;;;;;6.63;4.90;;;;;;;;;;4973509;28;20700;-64
2023/07/01 12:14:36;;;;;;;6.72;4.88;;;;;;;;;;4973291;28;20236;-65
2023/07/01 12:17:03;;;;;;;5.82;4.95;;;;;;;;;;4973465;28;20312;-64
2023/07/01 12:19:29;;;;;;;5.78;4.78;;;;;;;;;;4973822;28;20318;-65
2023/07/01 12:21:54;;;;;;;7.22;5.20;;;;;;;;;;4973191;28;20304;-64
2023/07/01 12:24:20;;;;;;;6.05;5.10;;;;;;;;;;4973479;28;20336;-64
2023/07/01 12:26:49;;;;;;;6.47;4.57;;;;;;;;;;4973267;28;20234;-65
2023/07/01 12:29:15;;;;;;;6.30;4.90;;;;;;;;;;4973059;28;20233;-64
2023/07/01 12:31:40;;;;;;;6.78;5.47;;;;;;;;;;4973576;28;20230;-65
2023/07/01 12:34:06;;;;;;;6.43;5.28;;;;;;;;;;4973205;28;20309;-63
2023/07/01 12:36:31;;;;;;;7.80;5.43;;;;;;;;;;4973023;28;20212;-69
2023/07/01 12:38:58;;;;;;;8.57;5.43;;;;;;;;;;4973749;28;20221;-69
2023/07/01 12:41:23;;;;;;;7.75;5.00;;;;;;;;;;4971532;28;20292;-66
2023/07/01 12:43:48;;;;;;;6.80;4.50;;;;;;;;;;4971842;28;20620;-66
2023/07/01 12:46:14;;;;;;;5.10;3.53;;;;;;;;;;4973095;28;20206;-65
2023/07/01 12:48:42;;;;;;;4.55;3.40;;;;;;;;;;4972719;28;20657;-65
2023/07/01 12:51:08;;;;;;;3.47;2.80;;;;;;;;;;4972722;28;20221;-64
2023/07/01 12:53:33;;;;;;;5.07;3.50;;;;;;;;;;4973439;28;20222;-64
2023/07/01 12:55:58;;;;;;;5.22;3.33;;;;;;;;;;4972547;28;20240;-64
2023/07/01 12:58:23;;;;;;;4.15;3.05;;;;;;;;;;4972923;28;20296;-64
2023/07/01 13:00:49;;;;;;;5.53;3.10;;;;;;;;;;4973251;28;20221;-64
2023/07/01 13:03:14;;;;;;;3.35;3.05;;;;;;;;;;4971915;28;20624;-64
2023/07/01 13:05:40;;;;;;;4.72;3.80;;;;;;;;;;4973175;28;20218;-64
2023/07/01 13:08:05;;;;;;;5.07;3.92;;;;;;;;;;4972706;28;20213;-64
2023/07/01 13:10:31;;;;;;;5.72;4.47;;;;;;;;;;4971101;28;20229;-64
2023/07/01 13:12:57;;;;;;;5.65;4.85;;;;;;;;;;4973041;28;20757;-64
2023/07/01 13:15:27;;;;;;;5.75;4.40;;;;;;;;;;4972671;28;20213;-64
2023/07/01 13:17:52;;;;;;;8.80;5.20;;;;;;;;;;4970822;28;20722;-65
2023/07/01 13:20:18;;;;;;;7.00;5.40;;;;;;;;;;4972058;28;20253;-63
2023/07/01 13:22:44;;;;;;;6.57;5.75;;;;;;;;;;4973073;28;20210;-65
2023/07/01 13:25:15;;;;;;;9.65;5.90;;;;;;;;;;4971850;28;20221;-64
2023/07/01 13:27:41;;;;;;;7.60;5.63;;;;;;;;;;4971370;28;20230;-64
2023/07/01 13:30:07;;;;;;;7.50;6.60;;;;;;;;;;4972290;28;20372;-64
2023/07/01 13:32:32;;;;;;;6.93;6.20;;;;;;;;;;4961370;28;20328;-64
2023/07/01 13:34:58;;;;;;;9.00;7.10;;;;;;;;;;4947012;28;20218;-64
2023/07/01 13:37:23;;;;;;;7.60;6.80;;;;;;;;;;4947060;28;20214;-64
2023/07/01 13:39:49;;;;;;;8.85;7.20;;;;;;;;;;4960550;28;20221;-64
2023/07/01 13:42:23;;;;;;;9.65;8.32;;;;;;;;;;4953443;28;20222;-64
2023/07/01 13:44:50;;;;;;;10.18;8.38;;;;;;;;;;4965916;28;20228;-64
2023/07/01 13:47:16;;;;;;;6.90;6.15;;;;;;;;;;4951091;28;20261;-64
2023/07/01 13:49:41;;;;;;;6.07;4.80;;;;;;;;;;4960300;28;20686;-65
2023/07/01 13:52:07;;;;;;;6.88;4.60;;;;;;;;;;4946659;28;20324;-64
2023/07/01 13:54:32;;;;;;;6.75;4.70;;;;;;;;;;4947735;28;20218;-65
2023/07/01 13:56:58;;;;;;;5.28;4.53;;;;;;;;;;4939335;28;20241;-64
2023/07/01 13:59:24;;;;;;;5.72;4.40;;;;;;;;;;4938654;28;20237;-64
2023/07/01 14:01:49;;;;;;;5.53;3.97;;;;;;;;;;4941324;28;20226;-64
2023/07/01 14:04:14;;;;;;;5.45;4.32;;;;;;;;;;4946019;28;20229;-64
2023/07/01 14:06:40;;;;;;;6.13;4.38;;;;;;;;;;4950443;28;20264;-64
2023/07/01 14:09:06;;;;;;;6.28;4.57;;;;;;;;;;4958036;28;20211;-63
2023/07/01 14:11:31;;;;;;;8.27;4.57;;;;;;;;;;4965821;28;20305;-65
2023/07/01 14:13:58;;;;;;;6.60;4.80;;;;;;;;;;4965739;28;20655;-65
2023/07/01 14:16:24;;;;;;;7.53;5.10;;;;;;;;;;4950317;28;20225;-64
2023/07/01 14:18:49;;;;;;;6.38;4.90;;;;;;;;;;4951304;28;20219;-65
2023/07/01 14:21:18;;;;;;;7.45;5.28;;;;;;;;;;4938382;28;20257;-64
2023/07/01 14:23:44;;;;;;;6.00;4.88;;;;;;;;;;4958751;28;20225;-64
2023/07/01 14:26:13;;;;;;;7.72;5.63;;;;;;;;;;4962734;28;20272;-64
2023/07/01 14:28:42;;;;;;;7.13;5.45;;;;;;;;;;4965471;28;21055;-64
2023/07/01 14:31:07;;;;;;;9.48;6.18;;;;;;;;;;4966395;28;20698;-64
2023/07/01 14:33:34;;;;;;;9.27;6.10;;;;;;;;;;4969520;28;20217;-64
2023/07/01 14:35:59;;;;;;;10.60;6.18;;;;;;;;;;4967654;28;20221;-64
2023/07/01 14:38:24;;;;;;;11.00;5.80;;;;;;;;;;4969158;28;20210;-64